createdAt,value
2023-06-10T00:04:31.899Z,11.85
2023-06-10T00:09:34.852Z,12.05
2023-06-10T00:14:39.774Z,11.95
2023-06-10T00:19:43.273Z,11.93
2023-06-10T00:24:47.046Z,11.75
2023-06-10T00:29:49.713Z,12.10
2023-06-10T00:34:59.729Z,11.55
2023-06-10T00:40:02.752Z,11.20
2023-06-10T00:45:06.293Z,11.52
2023-06-10T00:50:09.434Z,13.70
2023-06-10T00:55:12.625Z,13.05
2023-06-10T01:00:15.891Z,14.50
2023-06-10T01:05:18.513Z,13.65
2023-06-10T01:10:50.445Z,11.10
2023-06-10T01:15:54.388Z,14.10
2023-06-10T01:20:58.360Z,12.30
2023-06-10T01:26:04.815Z,13.07
2023-06-10T01:31:28.232Z,11.20
2023-06-10T01:36:33.625Z,11.18
2023-06-10T01:41:37.871Z,11.02
2023-06-10T01:46:40.907Z,11.25
2023-06-10T01:51:43.632Z,11.85
2023-06-10T01:56:46.266Z,11.63
2023-06-10T02:01:53.876Z,10.95
2023-06-10T02:06:57.619Z,11.68
2023-06-10T02:12:01.839Z,10.57
2023-06-10T02:17:04.614Z,12.00
2023-06-10T02:22:07.467Z,12.13
2023-06-10T02:27:10.303Z,9.68
2023-06-10T02:32:13.039Z,11.48
2023-06-10T02:37:16.762Z,10.60
2023-06-10T02:42:19.676Z,10.43
2023-06-10T02:47:22.345Z,10.52
2023-06-10T02:52:25.242Z,10.38
2023-06-10T02:57:28.459Z,10.23
2023-06-10T03:02:41.431Z,9.73
2023-06-10T03:07:44.221Z,9.70
2023-06-10T03:12:46.962Z,10.07
2023-06-10T03:17:50.501Z,9.43
2023-06-10T03:22:53.697Z,8.98
2023-06-10T03:28:02.599Z,9.05
2023-06-10T03:33:05.510Z,8.57
2023-06-10T03:38:08.189Z,9.05
2023-06-10T03:43:10.911Z,8.98
2023-06-10T03:48:13.609Z,9.52
2023-06-10T03:53:16.640Z,10.30
2023-06-10T03:58:20.289Z,10.48
2023-06-10T04:03:23.200Z,9.43
2023-06-10T04:08:25.941Z,9.27
2023-06-10T04:13:29.525Z,9.82
2023-06-10T04:18:32.392Z,9.18
2023-06-10T04:23:35.097Z,8.73
2023-06-10T04:28:38.475Z,9.43
2023-06-10T04:33:41.298Z,10.32
2023-06-10T04:38:44.515Z,10.13
2023-06-10T04:43:47.237Z,8.50
2023-06-10T04:48:50.964Z,9.35
2023-06-10T04:53:54.318Z,7.93
2023-06-10T04:58:56.931Z,8.45
2023-06-10T05:03:59.909Z,7.90
2023-06-10T05:09:03.487Z,9.13
2023-06-10T05:14:06.372Z,9.52
2023-06-10T05:19:09.270Z,9.50
2023-06-10T05:24:12.077Z,10.02
2023-06-10T05:29:14.745Z,9.15
2023-06-10T05:34:17.361Z,8.32
2023-06-10T05:39:30.004Z,8.63
2023-06-10T05:44:32.690Z,18.48
2023-06-10T05:49:35.434Z,8.02
2023-06-10T05:54:38.348Z,8.38
2023-06-10T05:59:41.098Z,7.35
2023-06-10T06:04:43.694Z,7.35
2023-06-10T06:09:46.406Z,7.13
2023-06-10T06:14:51.094Z,8.90
2023-06-10T06:19:53.820Z,7.82
2023-06-10T06:24:56.594Z,10.23
2023-06-10T06:29:59.332Z,6.85
2023-06-10T06:35:12.708Z,7.00
2023-06-10T06:40:16.129Z,7.13
2023-06-10T06:45:18.754Z,6.88
2023-06-10T06:50:21.406Z,6.55
2023-06-10T06:55:24.192Z,6.50
2023-06-10T07:00:26.960Z,6.20
2023-06-10T07:05:29.760Z,7.18
2023-06-10T07:10:32.787Z,6.93
2023-06-10T07:15:35.740Z,6.78
2023-06-10T07:20:38.618Z,7.43
2023-06-10T07:25:44.025Z,7.43
2023-06-10T07:30:47.216Z,8.77
2023-06-10T07:35:49.880Z,8.27
2023-06-10T07:41:02.911Z,8.65
2023-06-10T07:46:07.558Z,10.87
2023-06-10T07:51:18.535Z,9.75
2023-06-10T07:56:23.548Z,10.55
2023-06-10T08:01:37.899Z,9.50
2023-06-10T08:06:40.497Z,9.70
2023-06-10T08:11:43.218Z,9.10
2023-06-10T08:16:46.714Z,9.77
2023-06-10T08:21:49.417Z,8.10
2023-06-10T08:26:52.120Z,8.60
2023-06-10T08:31:54.902Z,8.03
2023-06-10T08:36:57.654Z,8.63
2023-06-10T08:42:09.777Z,8.20
2023-06-10T08:47:17.342Z,8.32
2023-06-10T08:52:21.879Z,7.72
2023-06-10T08:57:25.272Z,6.72
2023-06-10T09:02:29.432Z,7.53
2023-06-10T09:26:41.963Z,6.82
2023-06-10T09:31:46.317Z,6.20
2023-06-10T09:46:56.575Z,6.70
2023-06-10T09:52:00.037Z,6.32
2023-06-10T09:57:09.724Z,6.32
2023-06-10T10:02:21.218Z,6.35
2023-06-10T10:12:17.875Z,6.25
2023-06-10T10:44:14.686Z,6.20
2023-06-10T10:49:20.011Z,5.78
2023-06-10T11:00:14.032Z,6.50
2023-06-10T11:05:18.483Z,7.18
2023-06-10T11:10:31.391Z,6.80
2023-06-10T11:15:35.516Z,7.30
2023-06-10T11:21:00.702Z,6.85
2023-06-10T11:26:29.141Z,7.28
2023-06-10T11:31:35.158Z,8.60
2023-06-10T11:36:44.360Z,11.70
2023-06-10T11:41:48.193Z,11.63
2023-06-10T11:46:52.126Z,13.65
2023-06-10T11:51:55.600Z,16.42
2023-06-10T11:57:01.164Z,21.37
2023-06-10T12:02:05.040Z,34.85
2023-06-10T12:07:09.185Z,34.42
2023-06-10T12:12:22.869Z,33.85
2023-06-10T12:22:43.741Z,20.48
2023-06-10T12:27:55.843Z,17.08
2023-06-10T12:32:59.886Z,9.23
2023-06-10T12:38:06.507Z,8.88
2023-06-10T12:43:10.260Z,9.57
2023-06-10T12:48:14.225Z,11.83
2023-06-10T12:53:18.412Z,11.27
2023-06-10T12:58:23.774Z,13.40
2023-06-10T13:03:27.567Z,12.05
2023-06-10T13:08:30.954Z,15.37
2023-06-10T13:13:34.305Z,14.43
2023-06-10T13:18:40.182Z,13.15
2023-06-10T13:23:48.054Z,11.32
2023-06-10T13:28:51.768Z,13.25
2023-06-10T13:33:55.387Z,10.15
2023-06-10T13:38:58.811Z,12.80
2023-06-10T13:44:02.167Z,9.77
2023-06-10T13:49:05.604Z,11.73
2023-06-10T13:54:09.062Z,11.40
2023-06-10T13:59:12.424Z,9.93
2023-06-10T14:04:16.042Z,10.35
2023-06-10T14:09:19.563Z,9.60
2023-06-10T14:14:24.391Z,9.50
2023-06-10T14:19:27.812Z,8.00
2023-06-10T14:24:41.388Z,6.53
2023-06-10T14:29:51.542Z,5.32
2023-06-10T14:34:55.044Z,7.40
2023-06-10T14:39:58.655Z,8.13
2023-06-10T14:45:02.402Z,5.70
2023-06-10T14:55:18.045Z,6.68
2023-06-10T15:00:24.325Z,7.55
2023-06-10T15:05:27.745Z,8.55
2023-06-10T15:10:31.821Z,7.10
2023-06-10T15:28:46.510Z,5.78
2023-06-10T15:33:50.002Z,7.20
2023-06-10T15:38:56.023Z,5.00
2023-06-10T15:44:03.429Z,5.72
2023-06-10T15:49:07.099Z,5.60
2023-06-10T15:54:10.949Z,4.88
2023-06-10T15:59:24.495Z,4.15
2023-06-10T16:04:31.315Z,3.70
2023-06-10T16:09:35.065Z,4.53
2023-06-10T16:14:48.941Z,4.00
2023-06-10T16:19:52.398Z,3.53
2023-06-10T16:24:56.242Z,4.65
2023-06-10T16:29:59.824Z,4.50
2023-06-10T16:35:03.284Z,5.68
2023-06-10T16:40:07.179Z,7.00
2023-06-10T16:45:11.267Z,6.20
2023-06-10T16:50:21.349Z,6.53
2023-06-10T16:55:24.813Z,8.37
2023-06-10T17:00:28.216Z,6.20
2023-06-10T17:05:32.111Z,5.73
2023-06-10T17:15:46.291Z,6.95
2023-06-10T17:20:50.045Z,6.00
2023-06-10T17:26:03.969Z,6.00
2023-06-10T17:31:07.739Z,5.88
2023-06-10T17:36:11.456Z,6.50
2023-06-10T17:41:15.969Z,6.50
2023-06-10T17:46:21.701Z,7.07
2023-06-10T17:51:25.512Z,6.65
2023-06-10T17:56:29.258Z,8.23
2023-06-10T18:01:32.792Z,8.35
2023-06-10T18:06:36.522Z,7.63
2023-06-10T18:11:40.662Z,8.70
2023-06-10T18:16:44.500Z,9.98
2023-06-10T18:27:02.401Z,8.70
2023-06-10T18:37:10.620Z,8.03
2023-06-10T18:42:24.289Z,8.23
2023-06-10T18:47:52.852Z,9.50
2023-06-10T18:53:01.206Z,9.55
2023-06-10T18:58:05.799Z,17.00
2023-06-10T19:03:09.648Z,18.90
2023-06-10T19:08:13.352Z,12.15
2023-06-10T19:13:17.109Z,11.35
2023-06-10T19:18:20.997Z,12.27
2023-06-10T19:23:24.775Z,13.40
2023-06-10T19:28:28.512Z,12.90
2023-06-10T19:33:42.257Z,12.17
2023-06-10T19:38:46.017Z,12.27
2023-06-10T19:43:51.474Z,13.27
2023-06-10T19:48:55.137Z,14.45
2023-06-10T19:53:58.585Z,13.57
2023-06-10T19:59:02.209Z,12.20
2023-06-10T20:04:06.066Z,13.60
2023-06-10T20:09:10.035Z,18.55
2023-06-10T20:14:13.762Z,12.88
2023-06-10T20:19:17.257Z,13.40
2023-06-10T20:24:20.718Z,12.00
2023-06-10T20:29:24.424Z,13.17
2023-06-10T20:34:28.140Z,12.80
2023-06-10T20:39:32.029Z,12.38
2023-06-10T20:44:45.607Z,11.33
2023-06-10T20:49:58.991Z,10.10
2023-06-10T20:55:02.338Z,12.17
2023-06-10T21:00:06.389Z,11.52
2023-06-10T21:05:10.230Z,10.68
2023-06-10T21:10:17.974Z,11.05
2023-06-10T21:15:31.435Z,10.98
2023-06-10T21:20:34.911Z,9.93
2023-06-10T21:25:38.264Z,10.05
2023-06-10T21:30:44.096Z,10.05
2023-06-10T21:35:47.512Z,10.13
2023-06-10T21:40:50.888Z,10.80
2023-06-10T21:45:57.115Z,10.52
2023-06-10T21:51:00.812Z,11.40
2023-06-10T21:56:14.293Z,10.27
2023-06-10T22:01:18.283Z,8.68
2023-06-10T22:06:26.662Z,10.00
2023-06-10T22:11:40.138Z,10.60
2023-06-10T22:16:54.194Z,11.43
2023-06-10T22:21:57.722Z,9.40
2023-06-10T22:27:01.712Z,8.05
2023-06-10T22:32:05.388Z,7.93
2023-06-10T22:37:08.778Z,6.78
2023-06-10T22:42:12.700Z,7.03
2023-06-10T22:47:16.380Z,6.53
2023-06-10T22:52:20.168Z,6.50
2023-06-10T22:57:23.588Z,7.10
2023-06-10T23:02:27.435Z,7.67
2023-06-10T23:07:40.943Z,8.03
2023-06-10T23:12:47.506Z,9.20
2023-06-10T23:17:51.748Z,9.57
2023-06-10T23:27:58.831Z,6.80
2023-06-10T23:33:02.284Z,7.03
2023-06-10T23:38:05.697Z,6.53
2023-06-10T23:43:09.259Z,1.33
2023-06-10T23:48:12.733Z,1.00
2023-06-10T23:53:16.286Z,0.87
2023-06-10T23:58:20.310Z,0.75
